Time;durP1;ratioP1;P1;durP2;ratioP2;P2;SDS_P1;SDS_P2;PMS_P1;PMS_P2;Temp;Humidity;BMP_temperature;BMP_pressure;BME280_temperature;BME280_humidity;BME280_pressure;Samples;Min_cycle;Max_cycle;Signal;HPM_P1;HPM_P2
2024/03/07 00:01:56;;;;;;;50.53;22.70;;;4.40;99.90;;;4.90;100.00;98441.88;10422758;28;20218;-62
2024/03/07 00:07:00;;;;;;;26.53;20.87;;;4.20;99.90;;;4.89;100.00;98447.66;10429840;28;20324;-63
2024/03/07 00:12:05;;;;;;;35.10;21.60;;;4.20;99.90;;;4.80;100.00;98440.16;10432254;28;20846;-64
2024/03/07 00:17:10;;;;;;;30.20;21.47;;;4.10;99.90;;;4.66;100.00;98436.38;10428552;28;20225;-63
2024/03/07 00:22:13;;;;;;;34.47;25.30;;;3.90;99.90;;;4.47;100.00;98438.94;10429994;28;20233;-65
2024/03/07 00:27:16;;;;;;;32.57;24.97;;;3.80;99.90;;;4.34;100.00;98446.16;10417979;28;20708;-63
2024/03/07 00:32:22;;;;;;;36.73;25.67;;;3.70;99.90;;;4.23;100.00;98439.25;10432351;28;20229;-61
2024/03/07 00:37:25;;;;;;;36.13;25.70;;;3.60;99.90;;;4.14;100.00;98436.78;10429802;28;20235;-65
2024/03/07 00:42:28;;;;;;;36.87;25.63;;;3.40;99.90;;;4.07;100.00;98436.97;10431758;28;20224;-63
2024/03/07 00:47:33;;;;;;;37.73;26.03;;;3.40;99.90;;;3.92;100.00;98440.63;10431431;28;20571;-63
2024/03/07 00:52:37;;;;;;;75.53;25.37;;;3.20;99.90;;;3.74;100.00;98428.06;10430697;28;20306;-66
2024/03/07 00:57:40;;;;;;;36.93;25.20;;;3.10;99.90;;;3.74;100.00;98429.72;10427979;28;20727;-63
2024/03/07 01:02:45;;;;;;;33.33;23.93;;;3.20;99.90;;;3.70;100.00;98425.13;10432227;28;20232;-63
2024/03/07 01:07:49;;;;;;;33.60;24.47;;;3.10;99.90;;;3.66;100.00;98428.09;10431482;28;20229;-62
2024/03/07 01:12:53;;;;;;;35.57;25.33;;;3.10;99.90;;;3.68;100.00;98421.56;10430950;28;20284;-62
2024/03/07 01:17:58;;;;;;;39.00;27.63;;;3.00;99.90;;;3.46;100.00;98422.09;10432234;28;20393;-63
2024/03/07 01:23:01;;;;;;;41.70;28.57;;;2.80;99.90;;;3.39;100.00;98418.09;10430652;28;20600;-62
2024/03/07 01:28:04;;;;;;;42.67;26.73;;;2.80;99.90;;;3.43;100.00;98419.28;10434308;28;20320;-63
2024/03/07 01:33:09;;;;;;;37.13;25.30;;;2.80;99.90;;;3.33;100.00;98422.59;10433172;28;20236;-62
2024/03/07 01:38:14;;;;;;;34.50;23.87;;;2.60;99.90;;;3.27;100.00;98406.88;10434067;28;20256;-62
2024/03/07 01:43:17;;;;;;;41.03;25.73;;;2.70;99.90;;;3.20;100.00;98409.53;10433188;28;20649;-62
2024/03/07 01:48:29;;;;;;;34.33;24.10;;;2.60;99.90;;;3.13;100.00;98403.03;10431477;28;20231;-65
2024/03/07 01:53:33;;;;;;;31.93;25.13;;;2.50;99.90;;;3.09;100.00;98395.94;10433719;28;20263;-63
2024/03/07 01:58:37;;;;;;;44.03;24.83;;;2.50;99.90;;;3.11;100.00;98388.47;10432893;28;20255;-62
2024/03/07 02:03:42;;;;;;;47.13;24.77;;;2.50;99.90;;;3.07;100.00;98392.38;10431409;28;20323;-62
2024/03/07 02:08:46;;;;;;;39.83;22.87;;;2.40;99.90;;;2.91;100.00;98382.44;10432174;28;20220;-63
2024/03/07 02:13:49;;;;;;;42.80;25.97;;;2.20;99.90;;;2.70;100.00;98380.41;10431498;28;20240;-62
2024/03/07 02:18:55;;;;;;;34.53;24.23;;;2.20;99.90;;;2.79;100.00;98377.88;10428755;28;20330;-62
2024/03/07 02:23:59;;;;;;;54.40;28.37;;;2.20;99.90;;;2.63;100.00;98375.50;10431867;28;20224;-62
2024/03/07 02:29:03;;;;;;;78.40;29.13;;;2.10;99.90;;;2.62;100.00;98369.56;10427001;28;20249;-62
2024/03/07 02:34:07;;;;;;;42.87;27.17;;;2.00;99.90;;;2.65;100.00;98368.97;10431120;28;20789;-62
2024/03/07 02:39:11;;;;;;;51.50;28.07;;;2.10;99.90;;;2.59;100.00;98371.81;10431033;28;20302;-62
2024/03/07 02:44:15;;;;;;;79.87;30.33;;;2.00;99.90;;;2.74;100.00;98371.50;10414854;28;20238;-62
2024/03/07 02:49:18;;;;;;;71.10;31.60;;;2.00;99.90;;;2.70;100.00;98366.16;10432249;28;20233;-62
2024/03/07 02:54:22;;;;;;;140.37;34.00;;;2.00;99.90;;;2.64;100.00;98363.06;10428890;28;20224;-62
2024/03/07 02:59:26;;;;;;;85.07;30.13;;;2.00;99.90;;;2.42;100.00;98366.78;10431017;28;20228;-62
2024/03/07 03:04:29;;;;;;;62.17;29.27;;;1.90;99.90;;;2.37;100.00;98356.22;10431607;28;20229;-64
2024/03/07 03:09:33;;;;;;;120.10;32.53;;;1.80;99.90;;;2.42;100.00;98359.22;10430695;28;20259;-64
2024/03/07 03:14:37;;;;;;;105.13;32.20;;;1.80;99.90;;;2.19;100.00;98365.44;10430388;28;20237;-64
2024/03/07 03:19:40;;;;;;;102.07;31.80;;;1.60;99.90;;;2.10;100.00;98358.63;10430939;28;20691;-64
2024/03/07 03:24:44;;;;;;;62.00;26.90;;;1.60;99.90;;;2.15;100.00;98355.81;10431605;28;20745;-64
2024/03/07 03:29:50;;;;;;;177.93;37.40;;;1.60;99.90;;;2.16;100.00;98355.06;10429382;28;20255;-64
2024/03/07 03:34:54;;;;;;;265.77;37.03;;;1.60;99.90;;;1.92;100.00;98363.66;10431369;28;20730;-64
2024/03/07 03:39:58;;;;;;;55.33;28.60;;;1.40;99.90;;;1.78;100.00;98364.81;10431345;28;20815;-64
2024/03/07 03:45:02;;;;;;;111.97;30.77;;;1.30;99.90;;;1.65;100.00;98374.41;10438147;28;20241;-64
2024/03/07 03:50:07;;;;;;;55.50;28.90;;;1.20;99.90;;;1.83;100.00;98355.16;10437470;28;20308;-64
2024/03/07 03:55:12;;;;;;;146.17;32.80;;;1.30;99.90;;;1.78;100.00;98359.78;10435868;28;20227;-62
2024/03/07 04:00:16;;;;;;;188.80;36.90;;;1.30;99.90;;;1.76;100.00;98358.72;10403025;28;20679;-64
2024/03/07 04:05:21;;;;;;;212.30;36.47;;;1.30;99.90;;;1.67;100.00;98359.44;10410052;28;20233;-64
2024/03/07 04:10:26;;;;;;;75.90;29.10;;;1.10;99.90;;;1.72;100.00;98356.66;10432955;28;20316;-65
2024/03/07 04:15:31;;;;;;;137.10;31.83;;;1.20;99.90;;;1.58;100.00;98359.44;10438256;28;20235;-64
2024/03/07 04:20:40;;;;;;;75.60;29.50;;;1.00;99.90;;;1.48;100.00;98359.25;10437855;28;20224;-64
2024/03/07 04:25:44;;;;;;;106.37;32.10;;;1.00;99.90;;;1.40;100.00;98355.06;10436058;28;20237;-64
2024/03/07 04:30:49;;;;;;;64.70;30.50;;;0.90;99.90;;;1.53;100.00;98350.53;10434038;28;21011;-64
2024/03/07 04:35:54;;;;;;;44.47;27.93;;;1.00;99.90;;;1.53;100.00;98355.56;10435240;28;20388;-64
2024/03/07 04:40:59;;;;;;;54.97;29.03;;;1.00;99.90;;;1.71;100.00;98352.31;10434697;28;20213;-64
2024/03/07 04:46:02;;;;;;;109.50;31.77;;;1.00;99.90;;;1.63;100.00;98343.16;10434536;28;20225;-65
2024/03/07 04:51:05;;;;;;;48.17;29.20;;;0.90;99.90;;;1.55;100.00;98354.97;10433778;28;20232;-65
2024/03/07 04:56:10;;;;;;;106.83;30.47;;;1.00;99.90;;;1.63;100.00;98342.22;10434575;28;20561;-64
2024/03/07 05:01:13;;;;;;;94.43;30.63;;;1.00;99.90;;;1.47;100.00;98357.47;10429091;28;20232;-64
2024/03/07 05:06:16;;;;;;;78.00;29.87;;;0.90;99.90;;;1.32;100.00;98346.75;10431360;28;20264;-64
2024/03/07 05:11:21;;;;;;;106.30;31.57;;;0.80;99.90;;;1.19;100.00;98346.25;10433865;28;20239;-65
2024/03/07 05:16:24;;;;;;;107.77;31.80;;;0.70;99.90;;;1.18;100.00;98355.44;10432432;28;20228;-64
2024/03/07 05:21:37;;;;;;;59.97;27.43;;;0.70;99.90;;;1.15;100.00;98345.06;10436792;28;20271;-65
2024/03/07 05:26:42;;;;;;;42.80;28.67;;;0.60;99.90;;;1.17;100.00;98353.66;10436675;28;20225;-62
2024/03/07 05:31:46;;;;;;;36.37;27.17;;;0.70;99.90;;;1.22;100.00;98355.00;10438788;28;20229;-64
2024/03/07 05:36:50;;;;;;;137.23;35.70;;;0.70;99.90;;;1.30;100.00;98356.66;10437095;28;20236;-65
2024/03/07 05:41:54;;;;;;;54.53;29.07;;;0.70;99.90;;;1.20;100.00;98351.44;10426017;28;20236;-64
2024/03/07 05:47:01;;;;;;;113.60;45.33;;;0.60;99.90;;;1.08;100.00;98343.53;10434542;28;20266;-62
2024/03/07 05:52:06;;;;;;;98.27;30.67;;;0.60;99.90;;;1.02;100.00;98347.06;10431988;28;20238;-62
2024/03/07 05:57:11;;;;;;;99.63;30.17;;;0.50;99.90;;;1.01;100.00;98346.19;10433219;28;20286;-65
2024/03/07 06:02:16;;;;;;;58.50;29.70;;;0.60;99.90;;;1.15;100.00;98345.06;10432919;28;20229;-63
2024/03/07 06:07:20;;;;;;;52.33;28.17;;;0.70;99.90;;;1.24;100.00;98350.13;10433972;28;20726;-62
2024/03/07 06:12:25;;;;;;;51.37;29.27;;;0.80;99.90;;;1.21;100.00;98350.72;10431244;28;20233;-65
2024/03/07 06:17:30;;;;;;;66.97;30.17;;;0.70;99.90;;;1.20;100.00;98343.00;10432292;28;20231;-63
2024/03/07 06:22:34;;;;;;;53.23;30.73;;;0.70;99.90;;;1.26;100.00;98344.53;10431069;28;20236;-63
2024/03/07 06:27:48;;;;;;;39.00;26.87;;;0.80;99.90;;;1.32;100.00;98342.63;10430792;28;20319;-63
2024/03/07 06:32:51;;;;;;;43.90;30.47;;;0.80;99.90;;;1.44;100.00;98345.47;10433796;28;20720;-63
2024/03/07 06:37:55;;;;;;;46.27;31.03;;;0.90;99.90;;;1.52;100.00;98338.69;10431336;28;20232;-63
2024/03/07 06:42:59;;;;;;;54.60;32.53;;;1.00;99.90;;;1.56;100.00;98335.72;10429475;28;20221;-63
2024/03/07 06:48:02;;;;;;;66.77;31.20;;;1.00;99.90;;;1.58;100.00;98339.28;10429848;28;20379;-67
2024/03/07 06:53:07;;;;;;;53.60;33.47;;;1.00;99.90;;;1.65;100.00;98336.63;10429500;28;20229;-64
2024/03/07 06:58:13;;;;;;;51.57;32.30;;;1.10;99.90;;;1.65;100.00;98344.16;10430939;28;20239;-64
2024/03/07 07:03:16;;;;;;;67.00;35.37;;;1.10;99.90;;;1.76;100.00;98351.16;10427167;28;20324;-64
2024/03/07 07:08:19;;;;;;;55.17;35.80;;;1.10;99.90;;;1.73;100.00;98343.31;10430985;28;20276;-64
2024/03/07 07:13:24;;;;;;;59.30;37.70;;;1.10;99.90;;;1.87;100.00;98342.16;10432605;28;20595;-62
2024/03/07 07:18:27;;;;;;;52.63;36.43;;;1.20;99.90;;;2.06;100.00;98342.31;10444582;28;20669;-64
2024/03/07 07:23:31;;;;;;;51.63;37.03;;;1.40;99.90;;;2.20;100.00;98348.69;10445149;28;21277;-64
2024/03/07 07:28:36;;;;;;;56.00;38.50;;;1.50;99.90;;;2.03;100.00;98332.81;10424832;22;20225;-66
2024/03/07 07:33:39;;;;;;;56.43;37.93;;;1.50;99.90;;;2.10;100.00;98333.41;10397638;28;20395;-65
2024/03/07 07:38:42;;;;;;;56.37;38.83;;;1.50;99.90;;;2.25;100.00;98333.25;10396939;28;20332;-66
2024/03/07 07:43:47;;;;;;;56.10;37.83;;;1.70;99.90;;;2.35;100.00;98334.16;10396592;28;20320;-65
2024/03/07 07:48:51;;;;;;;54.57;37.17;;;1.80;99.90;;;2.50;100.00;98334.72;10399355;28;20649;-66
2024/03/07 07:53:56;;;;;;;54.33;37.20;;;2.00;99.90;;;2.51;100.00;98334.84;10404838;28;20230;-66
2024/03/07 07:59:01;;;;;;;52.47;36.67;;;2.00;99.90;;;2.92;100.00;98320.25;10400417;28;20227;-66
2024/03/07 08:04:05;;;;;;;56.17;37.37;;;2.30;99.90;;;2.79;100.00;98329.91;10402577;28;20318;-67
2024/03/07 08:09:10;;;;;;;54.33;36.00;;;2.30;99.90;;;2.99;100.00;98324.22;10399773;28;20240;-66
2024/03/07 08:14:15;;;;;;;54.47;38.13;;;2.40;99.90;;;3.01;100.00;98322.72;10397503;28;20362;-66
2024/03/07 08:19:18;;;;;;;55.60;38.50;;;2.50;99.90;;;2.94;100.00;98321.25;10397704;28;20861;-66
2024/03/07 08:24:21;;;;;;;51.37;36.13;;;2.40;99.90;;;3.15;100.00;98318.22;10395946;28;20213;-66
2024/03/07 08:29:26;;;;;;;55.40;37.50;;;2.50;99.90;;;3.31;100.00;98312.03;10390485;28;20248;-66
2024/03/07 08:34:29;;;;;;;53.10;36.43;;;2.80;99.90;;;3.69;100.00;98305.44;10390554;28;20244;-65
2024/03/07 08:39:32;;;;;;;48.47;35.03;;;3.20;99.90;;;4.15;100.00;98301.97;10391562;28;20277;-66
2024/03/07 08:44:36;;;;;;;49.33;35.60;;;3.60;99.90;;;4.53;100.00;98296.88;10389892;28;20226;-66
2024/03/07 08:49:40;;;;;;;48.10;34.57;;;4.00;99.90;;;5.29;100.00;98287.31;10391539;28;20244;-66
2024/03/07 08:54:44;;;;;;;46.53;33.37;;;4.70;99.90;;;5.69;100.00;98290.63;10392118;28;20248;-65
2024/03/07 08:59:49;;;;;;;44.03;32.00;;;5.20;99.90;;;6.03;100.00;98289.25;10395236;28;20279;-65
2024/03/07 09:04:52;;;;;;;43.83;33.77;;;5.50;99.90;;;6.34;100.00;98285.78;10391065;28;20229;-65
2024/03/07 09:09:55;;;;;;;39.57;31.07;;;5.70;99.90;;;6.73;100.00;98286.41;10391857;28;20325;-65
2024/03/07 09:15:00;;;;;;;37.57;30.60;;;6.10;99.90;;;6.70;98.83;98278.53;10389164;28;20244;-67
2024/03/07 09:20:04;;;;;;;41.37;31.40;;;6.00;99.90;;;6.99;100.00;98272.31;10392733;28;20597;-65
2024/03/07 09:25:12;;;;;;;40.53;31.90;;;6.30;99.90;;;7.22;100.00;98266.44;10388158;28;20307;-67
2024/03/07 09:30:21;;;;;;;40.20;32.17;;;6.70;99.90;;;7.47;100.00;98269.22;10391062;28;20218;-66
2024/03/07 09:35:25;;;;;;;43.30;32.83;;;6.80;99.90;;;7.71;100.00;98261.63;10391865;28;20241;-66
2024/03/07 09:40:28;;;;;;;39.40;31.60;;;7.10;99.90;;;7.40;89.51;98264.41;10390561;28;20886;-64
2024/03/07 09:45:38;;;;;;;41.57;32.57;;;6.90;99.90;;;7.65;98.83;98265.47;10389812;28;20666;-66
2024/03/07 09:50:43;;;;;;;42.57;34.00;;;6.90;99.90;;;7.63;96.12;98254.31;10390420;28;20226;-68
2024/03/07 09:55:47;;;;;;;42.60;34.07;;;6.90;99.90;;;7.61;87.83;98258.41;10387985;28;20222;-65
2024/03/07 10:00:53;;;;;;;41.13;33.60;;;7.10;99.90;;;7.80;94.68;98255.56;10392602;28;20303;-66
2024/03/07 10:05:56;;;;;;;47.20;36.03;;;7.20;99.90;;;8.24;98.62;98254.47;10402009;28;20634;-66
2024/03/07 10:11:00;;;;;;;44.77;34.90;;;7.60;99.90;;;8.35;93.63;98251.06;10400291;28;20229;-65
2024/03/07 10:16:07;;;;;;;42.72;33.35;;;7.60;99.90;;;8.10;89.15;98250.97;10402919;28;20316;-65
2024/03/07 10:21:11;;;;;;;43.40;35.22;;;7.40;99.90;;;8.18;89.20;98254.03;10400837;28;20316;-66
2024/03/07 10:26:14;;;;;;;46.25;36.60;;;7.40;99.90;;;8.24;96.77;98250.31;10396578;28;20236;-65
2024/03/07 10:31:30;;;;;;;43.67;33.70;;;7.40;99.90;;;7.65;85.53;98259.53;10399733;28;20221;-65
2024/03/07 10:36:35;;;;;;;47.20;36.60;;;7.10;99.90;;;8.06;95.70;98249.81;10398688;28;20304;-66
2024/03/07 10:41:47;;;;;;;43.00;33.77;;;7.30;99.90;;;7.80;91.46;98249.59;10395670;28;20231;-65
2024/03/07 10:46:59;;;;;;;45.17;34.50;;;7.00;99.90;;;7.42;87.83;98250.16;10393570;28;20313;-68
2024/03/07 10:52:10;;;;;;;45.30;36.53;;;6.80;99.90;;;7.36;88.67;98245.50;10393905;28;20233;-69
2024/03/07 10:57:22;;;;;;;45.37;35.00;;;6.70;99.90;;;7.45;87.45;98241.09;10395833;28;20225;-64
2024/03/07 11:02:36;;;;;;;44.23;35.37;;;6.90;99.90;;;7.77;87.79;98234.09;10399270;28;20275;-64
2024/03/07 11:07:39;;;;;;;45.73;34.77;;;7.30;99.90;;;8.12;85.79;98229.03;10403565;28;20240;-66
2024/03/07 11:12:43;;;;;;;42.08;34.80;;;7.70;99.90;;;8.25;83.83;98229.16;10395859;28;20268;-67
2024/03/07 11:17:50;;;;;;;46.83;35.27;;;8.00;99.90;;;8.62;93.21;98220.72;10392128;28;20284;-65
2024/03/07 11:22:55;;;;;;;43.00;35.75;;;8.00;99.90;;;8.98;92.55;98207.09;10391092;28;20221;-67
2024/03/07 11:28:00;;;;;;;36.03;31.00;;;8.30;99.90;;;8.85;88.71;98201.94;10390426;28;20237;-65
2024/03/07 11:33:08;;;;;;;40.47;32.35;;;8.10;99.90;;;8.68;88.79;98193.13;10386701;28;20229;-68
2024/03/07 11:38:13;;;;;;;36.13;31.10;;;8.00;99.90;;;8.34;81.67;98183.06;10388153;28;20249;-66
2024/03/07 11:43:18;;;;;;;39.45;32.17;;;7.80;99.90;;;8.45;84.46;98184.75;10387434;28;20611;-66
2024/03/07 11:48:23;;;;;;;37.27;31.47;;;7.90;99.90;;;8.38;81.23;98171.44;10388903;28;20324;-66
2024/03/07 11:53:27;;;;;;;37.95;30.13;;;7.90;99.90;;;8.53;83.20;98176.00;10390792;28;20295;-65
2024/03/07 11:58:31;;;;;;;37.35;31.30;;;7.90;99.90;;;8.18;82.77;98164.94;10393589;28;20340;-65
2024/03/07 12:03:36;;;;;;;40.65;32.70;;;7.60;99.90;;;8.22;83.72;98159.31;10398792;28;20318;-66
2024/03/07 12:08:40;;;;;;;38.33;32.58;;;7.70;99.90;;;8.37;83.24;98152.72;10396645;28;20228;-67
2024/03/07 12:13:45;;;;;;;36.60;32.08;;;7.80;99.90;;;8.04;81.36;98141.03;10396365;28;20234;-65
2024/03/07 12:18:49;;;;;;;40.13;32.60;;;7.60;99.90;;;7.95;81.47;98148.03;10395917;28;20240;-65
2024/03/07 12:23:53;;;;;;;41.80;34.20;;;7.60;99.90;;;8.18;87.69;98148.00;10394951;28;20600;-65
2024/03/07 12:28:57;;;;;;;41.77;34.83;;;7.60;99.90;;;8.28;88.99;98150.41;10392868;28;20226;-66
2024/03/07 12:34:02;;;;;;;40.67;32.87;;;7.70;99.90;;;8.31;85.58;98147.22;10391301;28;20236;-67
2024/03/07 12:39:13;;;;;;;41.77;33.47;;;7.80;99.90;;;8.60;85.85;98143.28;10392806;28;20229;-65
2024/03/07 12:44:21;;;;;;;43.80;33.72;;;8.00;99.90;;;8.37;79.32;98145.09;10391918;28;20229;-65
2024/03/07 12:49:26;;;;;;;42.83;32.58;;;7.90;99.90;;;8.56;77.53;98132.00;10391438;28;20348;-65
2024/03/07 12:54:30;;;;;;;40.20;32.08;;;8.20;99.90;;;8.22;77.53;98134.72;10394190;28;20229;-66
2024/03/07 12:59:33;;;;;;;39.80;32.63;;;7.90;99.90;;;8.62;80.21;98126.47;10394026;28;20229;-66
2024/03/07 13:04:38;;;;;;;39.80;32.50;;;8.10;99.90;;;8.88;80.07;98118.91;10392055;28;20666;-67
2024/03/07 13:09:48;;;;;;;40.45;31.17;;;8.30;99.90;;;8.71;80.70;98116.88;10391004;28;21459;-68
2024/03/07 13:14:51;;;;;;;42.28;32.30;;;8.10;99.90;;;9.20;78.98;98120.19;10390121;28;20262;-65
2024/03/07 13:19:59;;;;;;;41.45;32.60;;;8.50;99.90;;;8.96;73.35;98112.69;10397004;28;20576;-66
2024/03/07 13:25:13;;;;;;;42.63;32.78;;;8.50;99.90;;;9.11;76.38;98109.38;10398963;28;20312;-66
2024/03/07 13:30:23;;;;;;;38.72;32.10;;;8.60;99.90;;;9.03;72.65;98107.19;10396311;28;20312;-67
2024/03/07 13:35:28;;;;;;;39.42;31.45;;;8.70;99.90;;;8.71;77.10;98106.69;10398625;28;20241;-68
2024/03/07 13:40:31;;;;;;;41.22;31.73;;;8.30;99.90;;;8.77;76.34;98095.25;10396874;28;20233;-69
2024/03/07 13:45:39;;;;;;;38.83;31.33;;;8.40;99.90;;;9.01;78.21;98098.56;10396933;28;20240;-66
2024/03/07 13:50:45;;;;;;;37.15;29.92;;;8.40;99.90;;;9.18;75.86;98093.69;10396862;28;20777;-64
2024/03/07 13:56:36;;;;;;;34.72;28.80;;;8.60;99.90;;;8.84;75.68;98088.00;10399398;28;20287;-64
2024/03/07 14:02:06;;;;;;;35.80;27.98;;;8.30;99.90;;;8.64;75.21;98091.75;10397110;28;20274;-63
2024/03/07 14:07:51;;;;;;;29.52;24.88;;;8.10;99.90;;;8.85;74.11;98093.22;10395950;28;20662;-65
2024/03/07 14:13:24;;;;;;;30.65;24.95;;;8.30;99.90;;;9.01;68.26;98093.47;10397160;28;20313;-65
2024/03/07 14:19:22;;;;;;;31.88;26.02;;;8.50;99.90;;;8.77;69.00;98079.06;10398067;28;20709;-65
2024/03/07 14:25:16;;;;;;;31.65;25.58;;;8.30;99.90;;;8.70;68.21;98079.44;10395898;28;20765;-65
2024/03/07 14:30:32;;;;;;;34.20;25.92;;;8.20;99.90;;;8.68;68.97;98068.28;10402013;28;20225;-65
2024/03/07 14:35:59;;;;;;;30.23;24.50;;;8.20;99.90;;;8.64;70.71;98071.38;10398045;28;20616;-65
2024/03/07 14:41:03;;;;;;;30.55;24.17;;;8.10;99.90;;;8.64;66.35;98071.38;10394615;28;20242;-65
2024/03/07 14:46:07;;;;;;;28.23;24.00;;;8.20;99.90;;;8.94;66.71;98070.00;10381672;28;20313;-65
2024/03/07 14:51:13;;;;;;;29.15;23.58;;;8.40;99.90;;;8.59;67.83;98067.66;10379069;28;20316;-66
2024/03/07 14:56:19;;;;;;;30.77;25.55;;;8.30;99.90;;;8.53;71.36;98060.47;10391462;28;20693;-65
2024/03/07 15:01:26;;;;;;;28.15;23.92;;;8.10;99.90;;;8.42;71.37;98058.84;10409122;28;20249;-65
2024/03/07 15:06:31;;;;;;;29.02;23.42;;;7.90;99.90;;;8.29;70.61;98064.72;10398464;28;20320;-65
2024/03/07 15:11:40;;;;;;;30.60;25.52;;;7.90;99.90;;;8.23;70.04;98064.31;10397029;28;20840;-65
2024/03/07 15:16:43;;;;;;;29.17;24.30;;;7.90;99.90;;;8.13;71.45;98058.59;10395123;28;20705;-65
2024/03/07 15:21:47;;;;;;;44.95;33.47;;;7.80;99.90;;;8.37;72.64;98053.41;10399536;28;20308;-65
2024/03/07 15:26:52;;;;;;;30.67;25.75;;;7.80;99.90;;;8.37;69.60;98053.41;10398988;28;20303;-65
2024/03/07 15:31:56;;;;;;;29.70;22.98;;;7.90;99.90;;;8.45;70.48;98047.22;10391473;28;20648;-65
2024/03/07 15:37:02;;;;;;;32.60;24.88;;;8.00;99.90;;;8.61;71.20;98043.13;10398336;28;20769;-65
2024/03/07 15:42:08;;;;;;;27.05;22.48;;;8.00;99.90;;;8.47;71.61;98035.47;10397239;28;20591;-65
2024/03/07 15:47:12;;;;;;;28.02;22.80;;;8.00;99.90;;;8.41;70.04;98029.94;10396320;28;20240;-68
2024/03/07 15:52:18;;;;;;;30.50;23.50;;;7.90;99.90;;;8.40;71.25;98030.72;10396091;28;20233;-66
2024/03/07 15:57:22;;;;;;;27.50;22.38;;;7.90;99.90;;;8.29;73.23;98031.63;10398261;28;20352;-66
2024/03/07 16:02:26;;;;;;;25.48;21.60;;;7.80;99.90;;;8.42;72.22;98021.53;10397553;28;20226;-65
2024/03/07 16:07:29;;;;;;;24.60;20.42;;;7.90;99.90;;;8.19;74.23;98027.56;10395666;28;20252;-66
2024/03/07 16:12:33;;;;;;;24.58;20.13;;;7.70;99.90;;;8.05;75.10;98029.16;10397121;28;20225;-64
2024/03/07 16:17:37;;;;;;;24.23;19.60;;;7.70;99.90;;;7.84;75.84;98023.47;10396162;28;20265;-65
2024/03/07 16:22:42;;;;;;;22.25;19.23;;;7.60;99.90;;;7.83;77.50;98025.88;10391260;28;20226;-65
2024/03/07 16:27:46;;;;;;;24.13;18.80;;;7.40;99.90;;;7.81;77.34;98019.78;10396111;28;20228;-67
2024/03/07 16:32:57;;;;;;;21.90;19.55;;;7.30;99.90;;;7.59;78.47;98028.47;10395163;28;20606;-65
2024/03/07 16:38:02;;;;;;;24.63;20.40;;;7.20;99.90;;;7.54;78.53;98023.84;10397201;28;20225;-65
2024/03/07 16:43:10;;;;;;;25.10;20.80;;;7.10;99.90;;;7.58;79.62;98024.19;10394452;28;20221;-64
2024/03/07 16:48:16;;;;;;;22.90;19.20;;;7.10;99.90;;;7.52;80.06;98026.25;10391448;28;20240;-65
2024/03/07 16:53:20;;;;;;;24.37;20.30;;;7.10;99.90;;;7.40;80.65;98033.00;10390676;28;20226;-66
2024/03/07 16:58:24;;;;;;;22.13;19.00;;;7.00;99.90;;;7.41;81.70;98025.50;10398771;28;20244;-64
2024/03/07 17:03:27;;;;;;;24.43;19.47;;;7.00;99.90;;;7.32;81.58;98024.81;10393510;28;20840;-65
2024/03/07 17:08:33;;;;;;;22.47;19.60;;;6.90;99.90;;;7.30;82.14;98023.84;10394186;28;20232;-65
2024/03/07 17:13:40;;;;;;;24.13;19.03;;;6.90;99.90;;;7.12;82.85;98027.59;10390309;28;20229;-65
2024/03/07 17:18:44;;;;;;;23.30;19.93;;;6.80;99.90;;;7.31;82.64;98027.28;10394291;28;20711;-64
2024/03/07 17:23:47;;;;;;;27.53;21.87;;;6.80;99.90;;;7.21;82.40;98025.69;10393076;28;20232;-64
2024/03/07 17:28:52;;;;;;;25.30;21.20;;;6.80;99.90;;;7.11;82.29;98033.44;10392904;28;20846;-65
2024/03/07 17:33:56;;;;;;;25.23;20.37;;;6.70;99.90;;;7.07;83.51;98022.19;10390586;28;20232;-65
2024/03/07 17:39:00;;;;;;;23.90;19.83;;;6.70;99.90;;;7.18;82.55;98025.50;10391416;28;20359;-65
2024/03/07 17:44:10;;;;;;;24.70;20.50;;;6.70;99.90;;;7.12;82.76;98032.66;10390375;28;20283;-65
2024/03/07 17:49:15;;;;;;;22.40;19.87;;;6.70;99.90;;;7.02;83.14;98032.78;10411000;28;20230;-66
2024/03/07 17:54:19;;;;;;;26.03;21.00;;;6.60;99.90;;;7.00;83.54;98036.09;10391770;28;20273;-65
2024/03/07 17:59:24;;;;;;;27.90;22.20;;;6.50;99.90;;;6.68;84.34;98041.31;10386727;28;20230;-65
2024/03/07 18:04:28;;;;;;;25.53;21.37;;;6.50;99.90;;;6.88;84.38;98041.94;10388160;28;20222;-64
2024/03/07 18:09:31;;;;;;;25.17;20.47;;;6.50;99.90;;;6.84;84.77;98045.00;10388552;28;20651;-65
2024/03/07 18:14:36;;;;;;;28.80;22.43;;;6.40;99.90;;;6.80;84.37;98041.34;10398049;28;20311;-65
2024/03/07 18:19:40;;;;;;;28.10;22.83;;;6.40;99.90;;;6.84;85.16;98042.44;10381522;28;20229;-66
2024/03/07 18:24:45;;;;;;;29.30;22.40;;;6.40;99.90;;;6.97;83.75;98034.97;10382332;28;20225;-65
2024/03/07 18:29:49;;;;;;;33.10;26.97;;;6.50;99.90;;;6.88;83.94;98039.38;10380261;28;20337;-65
2024/03/07 18:34:52;;;;;;;27.73;22.23;;;6.40;99.90;;;6.76;85.08;98029.22;10383830;28;20221;-65
2024/03/07 18:39:55;;;;;;;27.47;20.90;;;6.30;99.90;;;6.74;84.57;98029.06;10378126;28;20792;-65
2024/03/07 18:45:08;;;;;;;27.67;21.60;;;6.20;99.90;;;6.44;85.90;98027.69;10379325;28;20230;-65
2024/03/07 18:50:12;;;;;;;26.23;22.17;;;6.00;99.90;;;6.41;86.10;98022.38;10380435;28;20798;-66
2024/03/07 18:55:18;;;;;;;25.83;21.27;;;6.00;99.90;;;6.53;86.33;98024.94;10372172;28;20230;-64
2024/03/07 19:00:30;;;;;;;26.90;21.60;;;6.00;99.90;;;6.60;87.67;98019.53;10374084;28;20241;-65
2024/03/07 19:05:37;;;;;;;24.10;20.83;;;6.10;99.90;;;6.64;85.15;98019.03;10378525;28;20232;-64
2024/03/07 19:10:42;;;;;;;23.67;20.73;;;6.20;99.90;;;6.74;85.30;98021.47;10375590;28;20229;-65
2024/03/07 19:15:49;;;;;;;25.17;20.83;;;6.20;99.90;;;6.62;85.95;98014.59;10378165;28;20248;-64
2024/03/07 19:20:54;;;;;;;24.20;19.93;;;6.10;99.90;;;6.59;85.76;98010.16;10379440;28;20268;-64
2024/03/07 19:26:03;;;;;;;24.37;20.43;;;6.00;99.90;;;6.51;85.57;98006.16;10378940;28;20229;-64
2024/03/07 19:31:13;;;;;;;27.27;20.80;;;6.00;99.90;;;6.52;84.92;98005.38;10380757;28;20448;-64
2024/03/07 19:36:17;;;;;;;25.03;20.57;;;6.00;99.90;;;6.51;86.27;98001.09;10379201;28;20233;-64
2024/03/07 19:41:22;;;;;;;23.70;20.07;;;6.00;99.90;;;6.49;85.17;98000.09;10378698;28;20642;-65
2024/03/07 19:46:28;;;;;;;25.67;20.10;;;6.00;99.90;;;6.60;84.99;98006.84;10378369;28;20230;-64
2024/03/07 19:51:31;;;;;;;24.20;20.07;;;6.00;99.90;;;6.49;84.75;98005.16;10382774;28;20225;-65
2024/03/07 19:56:34;;;;;;;25.10;21.47;;;6.00;99.90;;;6.32;84.86;97998.81;10377437;28;20296;-65
2024/03/07 20:01:40;;;;;;;23.50;20.93;;;5.80;99.90;;;6.31;85.74;97997.94;10376035;28;20233;-64
2024/03/07 20:06:45;;;;;;;25.30;21.03;;;5.80;99.90;;;6.21;84.59;97995.50;10379478;28;20264;-65
2024/03/07 20:11:49;;;;;;;24.67;20.77;;;5.80;99.90;;;6.24;84.55;97993.19;10374583;28;20229;-64
2024/03/07 20:16:54;;;;;;;24.60;20.57;;;5.80;99.90;;;6.26;85.21;97986.53;10383363;28;20222;-64
2024/03/07 20:21:59;;;;;;;25.57;21.33;;;5.80;99.90;;;6.08;85.46;97987.69;10380822;28;20300;-64
2024/03/07 20:27:04;;;;;;;24.23;19.97;;;5.60;99.90;;;6.10;85.12;97993.78;10393562;28;20233;-64
2024/03/07 20:32:09;;;;;;;25.97;21.17;;;5.60;99.90;;;5.94;85.46;97990.84;10389529;28;20226;-65
2024/03/07 20:37:12;;;;;;;26.20;21.63;;;5.50;99.90;;;5.84;84.94;97982.50;10389641;28;20697;-64
2024/03/07 20:42:15;;;;;;;26.43;22.00;;;5.50;99.90;;;5.78;84.32;97984.56;10386490;28;20732;-64
2024/03/07 20:47:22;;;;;;;25.87;21.30;;;5.40;99.90;;;5.74;84.82;97980.00;10390446;28;20225;-65
2024/03/07 20:52:28;;;;;;;26.70;21.60;;;5.30;99.90;;;5.58;85.15;97977.94;10388921;28;20284;-65
2024/03/07 20:57:31;;;;;;;25.23;21.03;;;5.20;99.90;;;5.54;84.78;97969.97;10391470;28;20229;-65
2024/03/07 21:02:35;;;;;;;26.43;21.97;;;5.10;99.90;;;5.48;85.07;97970.38;10388514;28;20262;-64
2024/03/07 21:07:44;;;;;;;27.60;21.90;;;5.10;99.90;;;5.36;84.90;97972.81;10389398;28;20604;-66